createdAt,value
2022-10-01T00:01:00.602Z,5.30
2022-10-01T00:03:28.319Z,7.20
2022-10-01T00:06:09.123Z,5.10
2022-10-01T00:08:37.152Z,5.97
2022-10-01T00:11:18.181Z,5.60
2022-10-01T00:13:44.869Z,6.27
2022-10-01T00:16:13.170Z,5.60
2022-10-01T00:18:42.330Z,4.80
2022-10-01T00:21:10.851Z,5.63
2022-10-01T00:23:37.634Z,6.57
2022-10-01T00:26:18.394Z,5.20
2022-10-01T00:28:46.532Z,7.20
2022-10-01T00:31:15.262Z,4.90
2022-10-01T00:33:42.541Z,6.43
2022-10-01T00:36:10.427Z,5.60
2022-10-01T00:38:37.965Z,5.93
2022-10-01T00:41:05.196Z,5.57
2022-10-01T00:43:35.094Z,5.93
2022-10-01T00:46:10.711Z,5.73
2022-10-01T00:48:52.479Z,7.00
2022-10-01T00:51:20.698Z,7.50
2022-10-01T00:53:47.174Z,6.37
2022-10-01T00:56:13.738Z,6.27
2022-10-01T00:58:40.130Z,6.70
2022-10-01T01:01:06.496Z,7.53
2022-10-01T01:03:32.885Z,7.40
2022-10-01T01:05:59.231Z,6.43
2022-10-01T01:08:25.634Z,7.30
2022-10-01T01:11:16.941Z,11.27
2022-10-01T01:14:20.879Z,8.80
2022-10-01T01:17:02.495Z,6.83
2022-10-01T01:19:43.554Z,8.00
2022-10-01T01:22:13.377Z,8.43
2022-10-01T01:24:59.099Z,9.07
2022-10-01T01:27:28.322Z,7.37
2022-10-01T01:30:04.245Z,8.30
2022-10-01T01:33:01.321Z,8.63
2022-10-01T01:35:33.637Z,7.93
2022-10-01T01:38:10.272Z,10.37
2022-10-01T01:40:40.199Z,11.50
2022-10-01T01:43:13.925Z,8.67
2022-10-01T01:45:42.119Z,7.97
2022-10-01T01:48:09.878Z,7.93
2022-10-01T01:50:43.277Z,8.03
2022-10-01T01:53:09.916Z,8.00
2022-10-01T01:55:37.080Z,8.90
2022-10-01T01:58:03.686Z,8.43
2022-10-01T02:00:30.031Z,7.80
2022-10-01T02:02:57.747Z,7.83
2022-10-01T02:05:29.017Z,11.23
2022-10-01T02:08:04.329Z,8.20
2022-10-01T02:10:46.748Z,7.73
2022-10-01T02:13:31.859Z,8.13
2022-10-01T02:16:18.734Z,8.33
2022-10-01T02:19:30.101Z,7.70
2022-10-01T02:22:03.207Z,8.10
2022-10-01T02:24:47.542Z,9.83
2022-10-01T02:27:44.454Z,7.57
2022-10-01T02:30:12.133Z,7.90
2022-10-01T02:32:42.632Z,7.30
2022-10-01T02:35:12.249Z,7.70
2022-10-01T02:37:41.326Z,7.43
2022-10-01T02:40:15.821Z,7.87
2022-10-01T02:42:48.592Z,7.77
2022-10-01T02:45:22.704Z,6.73
2022-10-01T02:47:56.142Z,8.00
2022-10-01T02:50:27.164Z,6.60
2022-10-01T02:52:59.430Z,7.47
2022-10-01T02:55:29.910Z,10.10
2022-10-01T02:57:57.326Z,9.17
2022-10-01T03:00:24.046Z,7.03
2022-10-01T03:02:50.816Z,7.03
2022-10-01T03:05:17.854Z,7.23
2022-10-01T03:07:44.370Z,13.57
2022-10-01T03:10:11.770Z,7.10
2022-10-01T03:12:40.989Z,7.77
2022-10-01T03:15:07.675Z,8.27
2022-10-01T03:17:36.004Z,9.23
2022-10-01T03:20:02.737Z,7.07
2022-10-01T03:22:29.034Z,7.10
2022-10-01T03:24:55.357Z,10.63
2022-10-01T03:27:22.757Z,10.97
2022-10-01T03:29:49.782Z,10.13
2022-10-01T03:32:16.839Z,7.53
2022-10-01T03:34:43.698Z,7.00
2022-10-01T03:37:10.729Z,7.57
2022-10-01T03:39:37.159Z,8.57
2022-10-01T03:42:05.825Z,6.50
2022-10-01T03:44:32.912Z,7.73
2022-10-01T03:46:59.367Z,6.20
2022-10-01T03:49:25.822Z,8.40
2022-10-01T03:51:52.131Z,8.57
2022-10-01T03:54:18.522Z,7.07
2022-10-01T03:56:44.890Z,7.73
2022-10-01T03:59:11.888Z,6.80
2022-10-01T04:01:39.313Z,6.10
2022-10-01T04:04:06.320Z,6.00
2022-10-01T04:06:32.800Z,6.30
2022-10-01T04:08:59.155Z,6.97
2022-10-01T04:11:25.904Z,6.30
2022-10-01T04:13:52.264Z,5.93
2022-10-01T04:16:18.652Z,5.60
2022-10-01T04:18:45.226Z,5.70
2022-10-01T04:21:12.741Z,5.77
2022-10-01T04:23:39.078Z,5.07
2022-10-01T04:26:05.584Z,5.30
2022-10-01T04:28:32.416Z,4.60
2022-10-01T04:31:17.900Z,6.40
2022-10-01T04:33:44.909Z,5.33
2022-10-01T04:36:11.757Z,4.97
2022-10-01T04:38:38.202Z,4.13
2022-10-01T04:41:04.674Z,4.40
2022-10-01T04:43:31.077Z,5.10
2022-10-01T04:45:57.437Z,4.33
2022-10-01T04:48:24.185Z,4.23
2022-10-01T04:50:50.500Z,4.07
2022-10-01T04:53:16.846Z,3.37
2022-10-01T04:55:43.673Z,3.83
2022-10-01T04:58:10.435Z,3.57
2022-10-01T05:00:36.902Z,3.33
2022-10-01T05:03:03.427Z,2.90
2022-10-01T05:05:32.843Z,3.40
2022-10-01T05:07:59.187Z,3.10
2022-10-01T05:10:26.185Z,3.10
2022-10-01T05:12:52.560Z,2.53
2022-10-01T05:15:19.319Z,2.87
2022-10-01T05:17:47.141Z,2.47
2022-10-01T05:20:18.960Z,2.67
2022-10-01T05:22:46.430Z,2.57
2022-10-01T05:25:13.610Z,2.20
2022-10-01T05:27:41.049Z,2.50
2022-10-01T05:30:12.526Z,2.00
2022-10-01T05:32:39.226Z,2.30
2022-10-01T05:35:07.681Z,2.57
2022-10-01T05:37:34.754Z,2.07
2022-10-01T05:40:01.662Z,2.30
2022-10-01T05:42:28.021Z,2.27
2022-10-01T05:44:54.331Z,3.83
2022-10-01T05:47:20.894Z,2.13
2022-10-01T05:49:47.226Z,2.13
2022-10-01T05:52:15.302Z,2.20
2022-10-01T05:54:41.729Z,1.90
2022-10-01T05:57:09.317Z,1.93
2022-10-01T05:59:35.945Z,4.70
2022-10-01T06:02:04.086Z,3.77
2022-10-01T06:04:30.685Z,2.53
2022-10-01T06:06:58.206Z,2.10
2022-10-01T06:09:24.545Z,2.47
2022-10-01T06:11:50.990Z,2.00
2022-10-01T06:14:17.755Z,3.80
2022-10-01T06:16:44.599Z,2.10
2022-10-01T06:19:11.016Z,2.87
2022-10-01T06:21:37.773Z,3.07
2022-10-01T06:24:04.343Z,2.00
2022-10-01T06:26:31.150Z,2.07
2022-10-01T06:28:57.664Z,2.10
2022-10-01T06:31:25.088Z,1.97
2022-10-01T06:33:51.486Z,2.13
2022-10-01T06:36:17.885Z,3.53
2022-10-01T06:38:44.308Z,2.40
2022-10-01T06:41:11.022Z,2.53
2022-10-01T06:43:37.425Z,1.77
2022-10-01T06:46:05.184Z,1.93
2022-10-01T06:48:32.423Z,4.00
2022-10-01T06:50:59.258Z,2.10
2022-10-01T06:53:27.990Z,2.40
2022-10-01T06:55:55.354Z,2.30
2022-10-01T06:58:26.209Z,2.43
2022-10-01T07:00:59.020Z,2.17
2022-10-01T07:03:25.797Z,2.50
2022-10-01T07:05:52.305Z,2.23
2022-10-01T07:08:19.105Z,3.60
2022-10-01T07:10:45.703Z,1.90
2022-10-01T07:13:17.486Z,2.00
2022-10-01T07:15:44.973Z,2.03
2022-10-01T07:18:12.019Z,4.20
2022-10-01T07:20:39.573Z,3.80
2022-10-01T07:23:10.170Z,1.83
2022-10-01T07:25:38.817Z,1.80
2022-10-01T07:28:07.377Z,1.87
2022-10-01T07:30:34.467Z,2.83
2022-10-01T07:33:00.855Z,1.73
2022-10-01T07:35:28.380Z,2.00
2022-10-01T07:37:55.287Z,1.70
2022-10-01T07:40:22.066Z,1.60
2022-10-01T07:42:56.114Z,2.60
2022-10-01T07:45:23.811Z,2.13
2022-10-01T07:47:58.457Z,1.40
2022-10-01T07:50:25.956Z,2.27
2022-10-01T07:52:55.282Z,1.50
2022-10-01T07:55:23.755Z,1.50
2022-10-01T07:57:55.096Z,1.60
2022-10-01T08:00:23.631Z,1.57
2022-10-01T08:02:53.497Z,1.40
2022-10-01T08:05:22.230Z,2.40
2022-10-01T08:07:49.541Z,1.77
2022-10-01T08:10:18.023Z,3.00
2022-10-01T08:12:45.196Z,2.63
2022-10-01T08:15:16.701Z,3.00
2022-10-01T08:17:44.249Z,1.93
2022-10-01T08:20:13.038Z,1.67
2022-10-01T08:22:42.153Z,1.70
2022-10-01T08:25:09.652Z,1.73
2022-10-01T08:27:36.291Z,1.70
2022-10-01T08:30:02.841Z,1.77
2022-10-01T08:32:30.078Z,1.60
2022-10-01T08:34:57.554Z,2.10
2022-10-01T08:37:28.344Z,2.10
2022-10-01T08:39:56.147Z,3.83
2022-10-01T08:42:43.512Z,2.57
2022-10-01T08:45:20.224Z,3.00
2022-10-01T08:47:59.170Z,6.30
2022-10-01T08:50:52.888Z,3.37
2022-10-01T08:53:31.781Z,4.60
2022-10-01T08:56:00.142Z,3.30
2022-10-01T08:58:34.649Z,4.50
2022-10-01T09:01:01.170Z,2.30
2022-10-01T09:03:31.061Z,2.53
2022-10-01T09:06:20.582Z,4.47
2022-10-01T09:08:57.781Z,3.43
2022-10-01T09:11:43.986Z,3.13
2022-10-01T09:14:35.758Z,3.33
2022-10-01T09:17:25.886Z,2.40
2022-10-01T09:20:23.686Z,6.40
2022-10-01T09:23:19.648Z,2.50
2022-10-01T09:25:50.314Z,5.30
2022-10-01T09:28:23.901Z,2.90
2022-10-01T09:31:08.702Z,4.87
2022-10-01T09:33:37.858Z,5.10
2022-10-01T09:36:25.218Z,2.83
2022-10-01T09:39:14.783Z,3.70
2022-10-01T09:41:41.225Z,21.00
2022-10-01T09:44:18.804Z,7.00
2022-10-01T09:46:46.634Z,6.13
2022-10-01T09:49:36.204Z,5.73
2022-10-01T09:52:15.131Z,6.43
2022-10-01T09:54:49.134Z,9.20
2022-10-01T09:57:25.206Z,11.60
2022-10-01T10:00:02.117Z,10.70
2022-10-01T10:02:36.130Z,17.80
2022-10-01T10:05:05.274Z,9.40
2022-10-01T10:07:34.615Z,14.20
2022-10-01T10:10:09.364Z,16.20
2022-10-01T10:12:36.115Z,20.17
2022-10-01T10:15:09.815Z,20.17
2022-10-01T10:17:38.019Z,22.73
2022-10-01T10:20:13.111Z,15.07
2022-10-01T10:22:39.499Z,13.77
2022-10-01T10:25:19.949Z,12.50
2022-10-01T10:27:55.377Z,6.67
2022-10-01T10:30:26.991Z,9.90
2022-10-01T10:33:03.562Z,10.47
2022-10-01T10:35:31.702Z,8.17
2022-10-01T10:37:58.800Z,7.17
2022-10-01T10:40:29.692Z,8.90
2022-10-01T10:42:58.479Z,5.50
2022-10-01T10:45:38.707Z,11.43
2022-10-01T10:48:08.125Z,6.73
2022-10-01T10:50:40.474Z,5.70
2022-10-01T10:53:20.026Z,7.00
2022-10-01T10:56:03.195Z,5.27
2022-10-01T10:58:33.343Z,6.93
2022-10-01T11:01:09.711Z,5.93
2022-10-01T11:03:38.369Z,6.23
2022-10-01T11:06:11.663Z,5.53
2022-10-01T11:08:39.525Z,6.67
2022-10-01T11:11:31.674Z,5.57
2022-10-01T11:14:23.849Z,6.33
2022-10-01T11:17:27.975Z,6.47
2022-10-01T11:20:06.891Z,4.70
2022-10-01T11:22:54.815Z,5.87
2022-10-01T11:25:44.865Z,6.73
2022-10-01T11:28:56.075Z,6.70
2022-10-01T11:31:40.320Z,4.53
2022-10-01T11:34:37.793Z,8.63
2022-10-01T11:37:24.167Z,7.03
2022-10-01T11:39:56.017Z,11.33
2022-10-01T11:42:34.664Z,5.33
2022-10-01T11:45:17.778Z,7.30
2022-10-01T11:47:52.218Z,10.30
2022-10-01T11:50:25.110Z,7.80
2022-10-01T11:53:23.908Z,9.40
2022-10-01T11:56:41.143Z,10.00
2022-10-01T11:59:36.573Z,10.83
2022-10-01T12:02:08.906Z,10.83
2022-10-01T12:04:41.878Z,10.27
2022-10-01T12:07:26.759Z,8.50
2022-10-01T12:10:21.414Z,9.60
2022-10-01T12:13:02.748Z,10.20
2022-10-01T12:15:37.751Z,7.93
2022-10-01T12:18:20.171Z,8.77
2022-10-01T12:20:50.563Z,6.77
2022-10-01T12:23:21.723Z,6.67
2022-10-01T12:26:04.419Z,6.13
2022-10-01T12:28:45.818Z,7.80
2022-10-01T12:31:47.946Z,4.53
2022-10-01T12:34:42.482Z,4.50
2022-10-01T12:37:27.931Z,5.17
2022-10-01T12:40:40.766Z,7.87
2022-10-01T12:43:25.962Z,8.37
2022-10-01T12:46:31.212Z,9.50
2022-10-01T12:49:22.292Z,4.70
2022-10-01T12:51:53.130Z,4.63
2022-10-01T12:54:30.870Z,8.03
2022-10-01T12:57:21.737Z,6.77
2022-10-01T13:00:07.891Z,5.00
2022-10-01T13:02:53.071Z,8.60
2022-10-01T13:05:50.130Z,7.73
2022-10-01T13:08:16.401Z,6.37
2022-10-01T13:10:52.046Z,8.07
2022-10-01T13:13:26.021Z,5.17
2022-10-01T13:16:02.618Z,5.10
2022-10-01T13:18:50.666Z,6.57
2022-10-01T13:21:50.006Z,6.20
2022-10-01T13:24:41.150Z,4.60
2022-10-01T13:27:18.310Z,5.40
2022-10-01T13:29:51.969Z,8.80
2022-10-01T13:32:37.226Z,5.30
2022-10-01T13:35:35.457Z,7.70
2022-10-01T13:38:29.017Z,8.40
2022-10-01T13:41:01.675Z,5.90
2022-10-01T13:43:30.485Z,6.13
2022-10-01T13:46:09.140Z,6.27
2022-10-01T13:48:44.053Z,7.03
2022-10-01T13:51:13.481Z,7.93
2022-10-01T13:53:42.875Z,8.77
2022-10-01T13:56:12.799Z,8.00
2022-10-01T13:58:40.385Z,9.97
2022-10-01T14:01:20.027Z,5.47
2022-10-01T14:06:35.272Z,8.47
2022-10-01T14:09:22.647Z,7.07
2022-10-01T14:12:22.115Z,7.50
2022-10-01T14:15:14.976Z,7.43
2022-10-01T14:17:43.661Z,7.93
2022-10-01T14:20:18.364Z,8.60
2022-10-01T14:22:51.633Z,5.77
2022-10-01T14:25:29.141Z,7.27
2022-10-01T14:28:27.729Z,8.37
2022-10-01T14:31:38.919Z,11.80
2022-10-01T14:34:20.724Z,7.93
2022-10-01T14:36:49.512Z,9.20
2022-10-01T14:39:15.890Z,9.20
2022-10-01T14:41:43.081Z,7.10
2022-10-01T14:44:24.763Z,6.20
2022-10-01T14:46:53.065Z,6.13
2022-10-01T14:49:30.633Z,6.87
2022-10-01T14:52:03.617Z,4.80
2022-10-01T14:54:56.226Z,10.87
2022-10-01T14:57:38.945Z,11.93
2022-10-01T15:00:10.933Z,8.67
2022-10-01T15:02:52.092Z,10.13
2022-10-01T15:05:26.865Z,9.63
2022-10-01T15:07:53.759Z,9.23
2022-10-01T15:10:23.822Z,7.50
2022-10-01T15:12:52.571Z,5.43
2022-10-01T15:15:33.770Z,9.63
2022-10-01T15:18:04.074Z,5.70
2022-10-01T15:20:31.004Z,9.57
2022-10-01T15:23:01.192Z,7.83
2022-10-01T15:25:30.035Z,8.43
2022-10-01T15:27:56.709Z,7.87
2022-10-01T15:30:26.403Z,7.97
2022-10-01T15:32:53.183Z,6.97
2022-10-01T15:35:22.002Z,5.47
2022-10-01T15:37:50.631Z,6.57
2022-10-01T15:40:35.259Z,7.40
2022-10-01T15:43:07.721Z,10.53
2022-10-01T15:45:35.093Z,7.63
2022-10-01T15:48:01.648Z,3.90
2022-10-01T15:50:39.238Z,9.30
2022-10-01T15:53:19.530Z,8.20
2022-10-01T15:55:49.506Z,9.77
2022-10-01T15:58:26.854Z,5.83
2022-10-01T16:01:06.738Z,8.47
2022-10-01T16:03:40.450Z,8.83
2022-10-01T16:06:18.369Z,8.77
2022-10-01T16:09:22.832Z,12.80
2022-10-01T16:11:56.407Z,5.53
2022-10-01T16:14:22.672Z,9.83
2022-10-01T16:16:50.754Z,7.30
2022-10-01T16:19:28.579Z,11.03
2022-10-01T16:22:15.654Z,13.63
2022-10-01T16:24:49.868Z,9.47
2022-10-01T16:27:26.409Z,7.90
2022-10-01T16:30:05.313Z,9.10
2022-10-01T16:32:32.171Z,5.97
2022-10-01T16:35:23.006Z,6.57
2022-10-01T16:37:51.742Z,10.77
2022-10-01T16:40:20.154Z,10.50
2022-10-01T16:42:49.318Z,8.63
2022-10-01T16:45:18.438Z,9.40
2022-10-01T16:47:45.837Z,11.37
2022-10-01T16:50:15.592Z,7.67
2022-10-01T16:52:42.302Z,6.43
2022-10-01T16:55:36.302Z,11.27
2022-10-01T16:58:03.934Z,9.83
2022-10-01T17:00:31.321Z,11.20
2022-10-01T17:02:59.608Z,8.43
2022-10-01T17:05:30.298Z,9.97
2022-10-01T17:08:05.190Z,8.70
2022-10-01T17:10:36.443Z,9.20
2022-10-01T17:13:03.588Z,11.23
2022-10-01T17:15:30.978Z,7.97
2022-10-01T17:17:58.925Z,8.27
2022-10-01T17:20:30.626Z,8.00
2022-10-01T17:22:58.401Z,7.73
2022-10-01T17:25:31.958Z,10.07
2022-10-01T17:27:59.563Z,7.00
2022-10-01T17:30:28.992Z,9.47
2022-10-01T17:32:56.806Z,9.33
2022-10-01T17:35:23.309Z,10.40
2022-10-01T17:37:49.618Z,13.17
2022-10-01T17:40:16.202Z,11.80
2022-10-01T17:42:42.622Z,11.57
2022-10-01T17:45:11.470Z,9.33
2022-10-01T17:47:42.926Z,9.70
2022-10-01T17:50:09.662Z,10.37
2022-10-01T17:52:36.010Z,9.00
2022-10-01T17:55:02.355Z,9.83
2022-10-01T17:57:28.720Z,8.90
2022-10-01T17:59:55.074Z,11.63
2022-10-01T18:02:40.878Z,8.30
2022-10-01T18:05:09.525Z,10.70
2022-10-01T18:07:39.317Z,10.73
2022-10-01T18:10:07.517Z,12.80
2022-10-01T18:12:34.493Z,8.80
2022-10-01T18:15:01.442Z,6.03
2022-10-01T18:17:28.085Z,10.33
2022-10-01T18:19:54.728Z,8.00
2022-10-01T18:22:21.399Z,7.10
2022-10-01T18:24:47.792Z,9.53
2022-10-01T18:27:14.238Z,9.33
2022-10-01T18:29:40.628Z,10.33
2022-10-01T18:32:20.531Z,14.37
2022-10-01T18:34:53.057Z,13.90
2022-10-01T18:37:26.822Z,9.50
2022-10-01T18:40:06.718Z,9.97
2022-10-01T18:42:44.833Z,8.93
2022-10-01T18:45:31.941Z,8.00
2022-10-01T18:48:14.203Z,11.10
2022-10-01T18:50:45.850Z,12.70
2022-10-01T18:53:32.221Z,7.93
2022-10-01T18:56:04.670Z,8.10
2022-10-01T18:58:52.973Z,7.57
2022-10-01T19:01:48.815Z,12.57
2022-10-01T19:04:44.518Z,9.43
2022-10-01T19:07:17.705Z,9.13
2022-10-01T19:10:09.969Z,12.60
2022-10-01T19:12:52.305Z,11.30
2022-10-01T19:15:53.918Z,16.40
2022-10-01T19:18:41.322Z,13.97
2022-10-01T19:21:26.122Z,19.77
2022-10-01T19:24:10.846Z,14.83
2022-10-01T19:27:04.318Z,7.93
2022-10-01T19:30:00.646Z,13.60
2022-10-01T19:32:36.244Z,10.97
2022-10-01T19:35:21.789Z,11.20
2022-10-01T19:37:55.146Z,11.10
2022-10-01T19:40:34.436Z,12.63
2022-10-01T19:43:17.239Z,15.60
2022-10-01T19:45:46.677Z,10.60
2022-10-01T19:48:19.963Z,13.50
2022-10-01T19:50:53.245Z,12.10
2022-10-01T19:53:37.326Z,11.20
2022-10-01T19:56:05.045Z,11.70
2022-10-01T19:58:32.554Z,13.63
2022-10-01T20:01:01.406Z,16.57
2022-10-01T20:03:39.193Z,14.63
2022-10-01T20:06:23.650Z,9.10
2022-10-01T20:09:00.373Z,16.97
2022-10-01T20:11:41.635Z,15.60
2022-10-01T20:15:11.894Z,10.80
2022-10-01T20:18:13.109Z,9.90
2022-10-01T20:20:50.778Z,10.00
2022-10-01T20:23:38.658Z,10.80
2022-10-01T20:26:23.382Z,9.23
2022-10-01T20:29:05.037Z,12.17
2022-10-01T20:31:43.773Z,9.03
2022-10-01T20:34:21.339Z,12.43
2022-10-01T20:37:08.204Z,13.53
2022-10-01T20:39:41.263Z,10.50
2022-10-01T20:42:17.336Z,13.17
2022-10-01T20:44:43.750Z,14.30
2022-10-01T20:47:27.550Z,9.60
2022-10-01T20:50:25.875Z,10.50
2022-10-01T20:53:06.827Z,13.50
2022-10-01T20:55:41.306Z,10.30
2022-10-01T20:58:14.268Z,9.10
2022-10-01T21:00:43.089Z,11.00
2022-10-01T21:03:19.309Z,8.40
2022-10-01T21:05:57.513Z,19.53
2022-10-01T21:08:23.809Z,12.60
2022-10-01T21:10:56.417Z,14.00
2022-10-01T21:13:31.957Z,18.40
2022-10-01T21:16:21.477Z,15.87
2022-10-01T21:19:10.113Z,17.07
2022-10-01T21:21:44.699Z,12.97
2022-10-01T21:24:59.236Z,15.57
2022-10-01T21:27:48.816Z,16.10
2022-10-01T21:30:17.610Z,11.67
2022-10-01T21:33:04.309Z,15.33
2022-10-01T21:35:44.072Z,14.07
2022-10-01T21:38:39.934Z,13.53
2022-10-01T21:41:29.826Z,14.90
2022-10-01T21:44:30.569Z,14.83
2022-10-01T21:47:15.036Z,10.60
2022-10-01T21:49:41.311Z,15.90
2022-10-01T21:52:49.767Z,11.10
2022-10-01T21:55:23.489Z,9.93
2022-10-01T21:58:03.641Z,13.10
2022-10-01T22:00:32.577Z,14.80
2022-10-01T22:03:10.506Z,11.60
2022-10-01T22:06:03.277Z,14.10
2022-10-01T22:08:48.413Z,15.93
2022-10-01T22:11:21.522Z,13.60
2022-10-01T22:13:53.326Z,17.83
2022-10-01T22:16:21.999Z,18.10
2022-10-01T22:19:03.342Z,15.90
2022-10-01T22:21:48.013Z,14.60
2022-10-01T22:24:48.090Z,10.57
2022-10-01T22:27:23.610Z,20.10
2022-10-01T22:30:15.610Z,19.17
2022-10-01T22:32:45.477Z,16.27
2022-10-01T22:35:26.914Z,17.23
2022-10-01T22:38:12.450Z,12.37
2022-10-01T22:40:45.469Z,18.50
2022-10-01T22:43:13.217Z,15.33
2022-10-01T22:46:02.143Z,16.43
2022-10-01T22:48:34.387Z,18.30
2022-10-01T22:51:09.766Z,12.47
2022-10-01T22:53:52.779Z,16.93
2022-10-01T22:56:28.999Z,16.17
2022-10-01T22:59:24.542Z,17.97
2022-10-01T23:02:06.020Z,12.70
2022-10-01T23:04:50.989Z,12.30
2022-10-01T23:07:45.515Z,13.83
2022-10-01T23:10:32.563Z,15.50
2022-10-01T23:13:28.603Z,14.43
2022-10-01T23:16:02.847Z,9.07
2022-10-01T23:18:40.218Z,13.47
2022-10-01T23:21:12.422Z,17.53
2022-10-01T23:23:40.726Z,14.33
2022-10-01T23:26:46.125Z,12.60
2022-10-01T23:29:18.244Z,8.70
2022-10-01T23:32:22.625Z,9.13
2022-10-01T23:35:13.818Z,16.30
2022-10-01T23:37:59.416Z,12.70
2022-10-01T23:40:30.655Z,13.03
2022-10-01T23:43:00.139Z,12.17
2022-10-01T23:45:42.244Z,14.50
2022-10-01T23:48:17.158Z,13.97
2022-10-01T23:51:06.030Z,16.83
2022-10-01T23:53:45.226Z,11.20
2022-10-01T23:56:49.868Z,15.23
2022-10-01T23:59:33.473Z,16.73
